createdAt,value
2022-12-25T00:01:26.980Z,100993.16
2022-12-25T00:03:54.561Z,100975.75
2022-12-25T00:06:22.154Z,100980.19
2022-12-25T00:08:49.684Z,100989.09
2022-12-25T00:11:19.597Z,100996.97
2022-12-25T00:13:48.119Z,100983.06
2022-12-25T00:16:19.087Z,100980.44
2022-12-25T00:18:48.626Z,100977.75
2022-12-25T00:21:16.461Z,100973.38
2022-12-25T00:23:44.868Z,100976.81
2022-12-25T00:26:15.165Z,100991.59
2022-12-25T00:28:43.050Z,100973.19
2022-12-25T00:31:12.226Z,100978.38
2022-12-25T00:33:41.786Z,100976.56
2022-12-25T00:36:12.044Z,100983.44
2022-12-25T00:38:41.104Z,100981.69
2022-12-25T00:41:10.108Z,100978.88
2022-12-25T00:43:37.530Z,100991.09
2022-12-25T00:46:07.139Z,100994.50
2022-12-25T00:48:35.911Z,100995.34
2022-12-25T00:51:05.847Z,100993.47
2022-12-25T00:53:34.713Z,100990.75
2022-12-25T00:56:04.507Z,100991.53
2022-12-25T00:58:34.021Z,101009.81
2022-12-25T01:01:02.864Z,101014.03
2022-12-25T01:03:30.691Z,101011.38
2022-12-25T01:05:59.830Z,101019.16
2022-12-25T01:08:29.717Z,101032.19
2022-12-25T01:10:59.713Z,101033.03
2022-12-25T01:13:27.325Z,101044.28
2022-12-25T01:15:55.230Z,101052.97
2022-12-25T01:18:25.287Z,101052.06
2022-12-25T01:20:53.138Z,101056.44
2022-12-25T01:23:20.680Z,101071.28
2022-12-25T01:25:48.250Z,101072.22
2022-12-25T01:28:17.806Z,101063.44
2022-12-25T01:30:49.327Z,101071.34
2022-12-25T01:33:16.995Z,101061.78
2022-12-25T01:35:44.533Z,101065.22
2022-12-25T01:38:12.038Z,101062.69
2022-12-25T01:40:40.028Z,101054.75
2022-12-25T01:43:18.532Z,101058.25
2022-12-25T01:45:49.345Z,101052.13
2022-12-25T01:48:21.781Z,101046.91
2022-12-25T01:50:54.529Z,101051.25
2022-12-25T01:53:22.832Z,101048.56
2022-12-25T01:55:54.606Z,101056.44
2022-12-25T01:58:22.355Z,101066.06
2022-12-25T02:00:52.151Z,101065.16
2022-12-25T02:03:20.982Z,101066.13
2022-12-25T02:05:48.974Z,101058.31
2022-12-25T02:08:18.663Z,101054.81
2022-12-25T02:10:46.447Z,101056.66
2022-12-25T02:13:17.220Z,101052.31
2022-12-25T02:15:55.904Z,101047.22
2022-12-25T02:18:33.792Z,101046.28
2022-12-25T02:21:42.097Z,101045.41
2022-12-25T02:24:36.797Z,101035.06
2022-12-25T02:27:09.875Z,101033.31
2022-12-25T02:29:47.764Z,101048.03
2022-12-25T02:32:21.381Z,101032.06
2022-12-25T02:34:52.814Z,101033.56
2022-12-25T02:37:29.078Z,101036.03
2022-12-25T02:40:03.353Z,101036.78
2022-12-25T02:43:00.123Z,101037.56
2022-12-25T02:45:53.104Z,101035.63
2022-12-25T02:48:41.641Z,101042.59
2022-12-25T02:51:31.597Z,101035.41
2022-12-25T02:54:19.867Z,101034.50
2022-12-25T02:57:07.214Z,101051.75
2022-12-25T02:59:55.539Z,101054.13
2022-12-25T03:02:44.945Z,101053.88
2022-12-25T03:05:35.408Z,101047.56
2022-12-25T03:08:08.183Z,101040.50
2022-12-25T03:10:58.426Z,101038.50
2022-12-25T03:13:32.633Z,101053.03
2022-12-25T03:16:17.776Z,101056.38
2022-12-25T03:18:48.766Z,101061.41
2022-12-25T03:21:33.655Z,101059.50
2022-12-25T03:24:16.579Z,101063.72
2022-12-25T03:26:56.882Z,101062.78
2022-12-25T03:29:48.469Z,101060.16
2022-12-25T03:32:27.775Z,101059.25
2022-12-25T03:35:22.987Z,101063.44
2022-12-25T03:38:14.898Z,101061.47
2022-12-25T03:41:07.180Z,101070.84
2022-12-25T03:43:57.666Z,101066.44
2022-12-25T03:46:47.802Z,101056.69
2022-12-25T03:49:38.031Z,101046.97
2022-12-25T03:52:26.601Z,101051.25
2022-12-25T03:55:15.150Z,101051.88
2022-12-25T03:58:00.682Z,101047.47
2022-12-25T04:00:45.763Z,101049.06
2022-12-25T04:03:30.865Z,101059.44
2022-12-25T04:06:16.269Z,101062.75
2022-12-25T04:09:03.068Z,101057.41
2022-12-25T04:11:48.452Z,101061.59
2022-12-25T04:14:33.621Z,101065.72
2022-12-25T04:17:18.670Z,101073.34
2022-12-25T04:20:03.996Z,101085.38
2022-12-25T04:22:49.155Z,101080.09
2022-12-25T04:25:35.541Z,101074.94
2022-12-25T04:28:29.844Z,101062.75
2022-12-25T04:31:18.967Z,101068.19
2022-12-25T04:34:04.427Z,101066.53
2022-12-25T04:36:31.953Z,101063.94
2022-12-25T04:38:59.487Z,101078.50
2022-12-25T04:41:28.323Z,101075.78
2022-12-25T04:43:55.864Z,101073.97
2022-12-25T04:46:23.480Z,101071.28
2022-12-25T04:48:51.109Z,101072.09
2022-12-25T04:51:20.396Z,101067.72
2022-12-25T04:53:48.900Z,101074.59
2022-12-25T04:56:17.282Z,101072.81
2022-12-25T04:58:46.913Z,101082.28
2022-12-25T05:01:15.321Z,101082.28
2022-12-25T05:03:43.251Z,101069.16
2022-12-25T05:06:10.841Z,101066.47
2022-12-25T05:08:38.663Z,101067.44
2022-12-25T05:11:07.825Z,101056.91
2022-12-25T05:13:35.633Z,101058.63
2022-12-25T05:16:07.502Z,101051.63
2022-12-25T05:18:35.594Z,101060.38
2022-12-25T05:21:03.996Z,101050.66
2022-12-25T05:23:31.773Z,101053.34
2022-12-25T05:25:59.643Z,101052.47
2022-12-25T05:28:27.191Z,101040.28
2022-12-25T05:30:57.999Z,101042.91
2022-12-25T05:33:26.910Z,101035.94
2022-12-25T05:35:54.428Z,101047.22
2022-12-25T05:38:21.960Z,101047.16
2022-12-25T05:40:52.211Z,101042.69
2022-12-25T05:43:20.374Z,101034.84
2022-12-25T05:45:47.907Z,101051.44
2022-12-25T05:48:15.495Z,101046.13
2022-12-25T05:50:44.715Z,101039.09
2022-12-25T05:53:14.448Z,101024.22
2022-12-25T05:55:44.454Z,101025.97
2022-12-25T05:58:13.793Z,101024.28
2022-12-25T06:00:42.143Z,101016.44
2022-12-25T06:03:09.809Z,101019.78
2022-12-25T06:05:39.233Z,101026.81
2022-12-25T06:08:08.533Z,101028.50
2022-12-25T06:10:37.267Z,101041.72
2022-12-25T06:13:04.861Z,101053.91
2022-12-25T06:15:32.442Z,101050.50
2022-12-25T06:18:00.671Z,101053.19
2022-12-25T06:20:28.504Z,101056.72
2022-12-25T06:22:56.139Z,101054.28
2022-12-25T06:25:25.100Z,101056.09
2022-12-25T06:27:52.739Z,101061.53
2022-12-25T06:30:20.498Z,101052.84
2022-12-25T06:32:48.047Z,101057.34
2022-12-25T06:35:15.713Z,101042.69
2022-12-25T06:37:43.236Z,101053.28
2022-12-25T06:40:11.334Z,101054.38
2022-12-25T06:42:40.208Z,101047.56
2022-12-25T06:45:08.828Z,101045.34
2022-12-25T06:47:37.393Z,101036.94
2022-12-25T06:50:06.710Z,101035.50
2022-12-25T06:52:34.584Z,101032.38
2022-12-25T06:55:02.227Z,101037.81
2022-12-25T06:57:29.777Z,101038.81
2022-12-25T06:59:58.605Z,101044.13
2022-12-25T07:02:26.802Z,101054.72
2022-12-25T07:05:06.113Z,101036.47
2022-12-25T07:07:33.792Z,101040.19
2022-12-25T07:10:01.459Z,101037.78
2022-12-25T07:12:28.972Z,101042.34
2022-12-25T07:14:57.809Z,101039.88
2022-12-25T07:17:25.716Z,101048.81
2022-12-25T07:19:53.326Z,101054.13
2022-12-25T07:22:20.893Z,101052.50
2022-12-25T07:24:48.416Z,101042.97
2022-12-25T07:27:16.010Z,101041.25
2022-12-25T07:29:43.558Z,101044.72
2022-12-25T07:32:13.390Z,101031.66
2022-12-25T07:34:41.094Z,101038.63
2022-12-25T07:37:08.642Z,101029.97
2022-12-25T07:39:36.364Z,101025.56
2022-12-25T07:42:04.113Z,101028.22
2022-12-25T07:44:32.181Z,101030.78
2022-12-25T07:46:59.651Z,101030.84
2022-12-25T07:49:28.539Z,101030.78
2022-12-25T07:51:56.043Z,101013.31
2022-12-25T07:54:23.934Z,101016.88
2022-12-25T07:56:52.276Z,101012.59
2022-12-25T07:59:20.095Z,101010.88
2022-12-25T08:01:47.796Z,101014.44
2022-12-25T08:04:15.495Z,101018.91
2022-12-25T08:06:44.421Z,101019.84
2022-12-25T08:09:13.624Z,101016.41
2022-12-25T08:11:45.382Z,101008.63
2022-12-25T08:14:13.036Z,101010.47
2022-12-25T08:16:42.150Z,101003.50
2022-12-25T08:19:11.724Z,101013.16
2022-12-25T08:21:39.802Z,101012.25
2022-12-25T08:24:08.979Z,101018.31
2022-12-25T08:26:36.505Z,101011.31
2022-12-25T08:29:04.519Z,101013.09
2022-12-25T08:31:33.422Z,101024.41
2022-12-25T08:34:03.494Z,101003.47
2022-12-25T08:36:31.674Z,101003.47
2022-12-25T08:39:03.063Z,100993.81
2022-12-25T08:41:32.901Z,100993.88
2022-12-25T08:44:00.523Z,100986.03
2022-12-25T08:46:28.140Z,100984.28
2022-12-25T08:48:56.651Z,100986.16
2022-12-25T08:51:25.585Z,100961.94
2022-12-25T08:53:58.636Z,100964.81
2022-12-25T08:56:27.042Z,100949.44
2022-12-25T08:58:55.966Z,100942.81
2022-12-25T09:01:23.622Z,100938.78
2022-12-25T09:03:51.366Z,100935.53
2022-12-25T09:06:19.296Z,100940.97
2022-12-25T09:08:49.596Z,100943.88
2022-12-25T09:11:18.843Z,100952.00
2022-12-25T09:13:46.798Z,100963.66
2022-12-25T09:16:18.056Z,100980.56
2022-12-25T09:18:45.798Z,100977.44
2022-12-25T09:21:15.182Z,100973.28
2022-12-25T09:23:43.432Z,100980.59
2022-12-25T09:26:14.115Z,100980.00
2022-12-25T09:28:48.451Z,100979.44
2022-12-25T09:31:20.741Z,100977.13
2022-12-25T09:33:48.438Z,100983.66
2022-12-25T09:36:16.200Z,100985.81
2022-12-25T09:38:43.834Z,100987.84
2022-12-25T09:41:18.073Z,101001.28
2022-12-25T09:43:51.040Z,100997.19
2022-12-25T09:46:22.915Z,100987.81
2022-12-25T09:49:00.373Z,100986.44
2022-12-25T09:51:30.485Z,100985.84
2022-12-25T09:54:04.358Z,100982.59
2022-12-25T09:56:33.277Z,100974.03
2022-12-25T09:59:00.921Z,100974.34
2022-12-25T10:01:36.322Z,100959.69
2022-12-25T10:04:23.078Z,100961.78
2022-12-25T10:07:05.289Z,100975.31
2022-12-25T10:09:49.900Z,100972.97
2022-12-25T10:12:32.960Z,100968.84
2022-12-25T10:15:15.295Z,100953.31
2022-12-25T10:17:57.741Z,100946.69
2022-12-25T10:20:41.241Z,100953.94
2022-12-25T10:23:14.932Z,100960.31
2022-12-25T10:25:43.759Z,100957.00
2022-12-25T10:28:15.439Z,100950.13
2022-12-25T10:30:45.699Z,100937.97
2022-12-25T10:33:17.292Z,100928.50
2022-12-25T10:35:46.262Z,100918.13
2022-12-25T10:38:15.835Z,100927.88
2022-12-25T10:40:55.933Z,100927.09
2022-12-25T10:43:30.715Z,100921.06
2022-12-25T10:45:59.900Z,100920.31
2022-12-25T10:48:31.499Z,100907.22
2022-12-25T10:50:59.136Z,100913.47
2022-12-25T10:53:28.948Z,100910.91
2022-12-25T10:56:02.287Z,100909.22
2022-12-25T10:58:30.345Z,100895.22
2022-12-25T11:00:59.984Z,100887.34
2022-12-25T11:03:31.848Z,100898.00
2022-12-25T11:06:00.186Z,100884.88
2022-12-25T11:08:30.401Z,100869.13
2022-12-25T11:11:05.998Z,100865.59
2022-12-25T11:13:35.773Z,100873.56
2022-12-25T11:16:07.038Z,100875.44
2022-12-25T11:18:44.604Z,100843.88
2022-12-25T11:21:18.354Z,100818.50
2022-12-25T11:23:47.762Z,100799.28
2022-12-25T11:26:17.128Z,100792.34
2022-12-25T11:28:46.471Z,100818.75
2022-12-25T11:31:16.311Z,100819.69
2022-12-25T11:33:51.605Z,100808.31
2022-12-25T11:36:25.237Z,100817.97
2022-12-25T11:38:52.887Z,100825.88
2022-12-25T11:41:23.299Z,100839.91
2022-12-25T11:43:56.220Z,100838.16
2022-12-25T11:46:29.908Z,100825.84
2022-12-25T11:49:01.450Z,100824.09
2022-12-25T11:51:34.396Z,100824.06
2022-12-25T11:54:08.324Z,100831.97
2022-12-25T11:56:38.729Z,100817.03
2022-12-25T11:59:18.368Z,100814.41
2022-12-25T12:01:50.811Z,100810.00
2022-12-25T12:04:29.202Z,100822.34
2022-12-25T12:07:02.386Z,100820.63
2022-12-25T12:09:38.276Z,100821.56
2022-12-25T12:12:13.240Z,100816.34
2022-12-25T12:14:48.619Z,100813.78
2022-12-25T12:17:20.893Z,100805.84
2022-12-25T12:19:50.420Z,100798.81
2022-12-25T12:22:22.462Z,100795.34
2022-12-25T12:24:56.972Z,100803.25
2022-12-25T12:27:28.756Z,100803.28
2022-12-25T12:29:59.567Z,100808.63
2022-12-25T12:32:37.206Z,100810.41
2022-12-25T12:35:16.806Z,100806.06
2022-12-25T12:37:47.155Z,100800.81
2022-12-25T12:40:29.957Z,100807.00
2022-12-25T12:42:57.674Z,100792.06
2022-12-25T12:45:29.483Z,100783.31
2022-12-25T12:47:58.257Z,100779.81
2022-12-25T12:50:36.452Z,100778.94
2022-12-25T12:53:28.792Z,100783.34
2022-12-25T12:55:57.179Z,100764.00
2022-12-25T12:58:30.919Z,100755.22
2022-12-25T13:01:08.084Z,100760.53
2022-12-25T13:03:48.732Z,100757.00
2022-12-25T13:06:23.014Z,100768.44
2022-12-25T13:09:03.311Z,100750.00
2022-12-25T13:11:33.091Z,100744.75
2022-12-25T13:14:04.047Z,100743.00
2022-12-25T13:16:35.596Z,100739.50
2022-12-25T13:19:08.285Z,100733.34
2022-12-25T13:21:37.160Z,100731.59
2022-12-25T13:24:08.956Z,100727.22
2022-12-25T13:26:36.883Z,100728.97
2022-12-25T13:29:11.023Z,100732.53
2022-12-25T13:31:41.744Z,100710.53
2022-12-25T13:34:24.248Z,100708.78
2022-12-25T13:36:53.219Z,100706.16
2022-12-25T13:39:21.220Z,100704.38
2022-12-25T13:42:06.413Z,100699.13
2022-12-25T13:44:43.483Z,100710.53
2022-12-25T13:47:20.405Z,100718.44
2022-12-25T13:49:49.822Z,100712.31
2022-12-25T13:52:21.218Z,100701.72
2022-12-25T13:55:00.081Z,100700.81
2022-12-25T13:57:32.154Z,100691.13
2022-12-25T14:00:00.590Z,100693.75
2022-12-25T14:02:32.678Z,100691.09
2022-12-25T14:05:00.305Z,100693.69
2022-12-25T14:07:29.391Z,100693.69
2022-12-25T14:10:03.248Z,100687.50
2022-12-25T14:12:32.838Z,100675.22
2022-12-25T14:15:01.324Z,100665.53
2022-12-25T14:17:29.230Z,100673.41
2022-12-25T14:20:04.076Z,100675.19
2022-12-25T14:22:38.467Z,100683.94
2022-12-25T14:25:15.712Z,100674.28
2022-12-25T14:27:49.739Z,100685.69
2022-12-25T14:30:18.324Z,100690.94
2022-12-25T14:32:50.718Z,100680.41
2022-12-25T14:35:23.332Z,100677.75
2022-12-25T14:37:59.950Z,100668.06
2022-12-25T14:40:31.298Z,100669.81
2022-12-25T14:43:00.666Z,100673.31
2022-12-25T14:45:34.336Z,100674.19
2022-12-25T14:48:19.770Z,100668.91
2022-12-25T14:50:57.707Z,100666.28
2022-12-25T14:53:35.264Z,100661.00
2022-12-25T14:56:03.547Z,100663.63
2022-12-25T14:58:35.619Z,100669.78
2022-12-25T15:01:05.539Z,100657.47
2022-12-25T15:03:36.539Z,100631.09
2022-12-25T15:06:06.090Z,100619.63
2022-12-25T15:08:36.045Z,100614.34
2022-12-25T15:11:04.053Z,100614.38
2022-12-25T15:13:32.334Z,100588.88
2022-12-25T15:16:04.676Z,100580.97
2022-12-25T15:18:36.903Z,100583.63
2022-12-25T15:21:04.702Z,100601.19
2022-12-25T15:23:32.362Z,100581.88
2022-12-25T15:26:01.355Z,100567.84
2022-12-25T15:28:28.905Z,100572.28
2022-12-25T15:30:56.604Z,100564.38
2022-12-25T15:33:24.396Z,100575.81
2022-12-25T15:35:51.971Z,100546.81
2022-12-25T15:38:19.549Z,100524.88
2022-12-25T15:40:48.036Z,100530.16
2022-12-25T15:46:05.476Z,100535.47
2022-12-25T15:48:33.211Z,100525.75
2022-12-25T15:51:00.752Z,100524.06
2022-12-25T15:53:28.408Z,100499.44
2022-12-25T15:55:55.984Z,100508.28
2022-12-25T15:58:24.875Z,100512.69
2022-12-25T16:00:52.463Z,100519.72
2022-12-25T16:03:20.037Z,100517.09
2022-12-25T16:05:47.610Z,100514.47
2022-12-25T16:08:15.178Z,100513.59
2022-12-25T16:10:42.708Z,100510.09
2022-12-25T16:13:10.267Z,100497.81
2022-12-25T16:15:39.230Z,100491.69
2022-12-25T16:18:07.320Z,100496.97
2022-12-25T16:20:36.091Z,100490.81
2022-12-25T16:23:03.608Z,100486.50
2022-12-25T16:25:31.240Z,100468.94
2022-12-25T16:27:58.786Z,100471.59
2022-12-25T16:30:26.340Z,100470.78
2022-12-25T16:32:55.179Z,100464.63
2022-12-25T16:35:22.692Z,100471.69
2022-12-25T16:37:50.191Z,100467.31
2022-12-25T16:40:18.012Z,100464.69
2022-12-25T16:42:45.543Z,100464.72
2022-12-25T16:45:13.237Z,100470.91
2022-12-25T16:47:40.780Z,100480.59
2022-12-25T16:50:10.825Z,100475.31
2022-12-25T16:52:38.394Z,100462.13
2022-12-25T16:55:07.086Z,100450.72
2022-12-25T16:57:34.712Z,100448.09
2022-12-25T17:00:02.333Z,100441.94
2022-12-25T17:02:30.086Z,100449.84
2022-12-25T17:04:57.846Z,100450.75
2022-12-25T17:07:26.738Z,100449.84
2022-12-25T17:09:54.286Z,100431.38
2022-12-25T17:12:21.793Z,100422.59
2022-12-25T17:14:49.302Z,100426.13
2022-12-25T17:17:16.808Z,100422.59
2022-12-25T17:19:44.593Z,100419.09
2022-12-25T17:22:12.177Z,100401.50
2022-12-25T17:24:41.516Z,100406.75
2022-12-25T17:27:10.082Z,100410.28
2022-12-25T17:29:39.009Z,100407.63
2022-12-25T17:32:07.582Z,100403.22
2022-12-25T17:34:35.276Z,100395.28
2022-12-25T17:37:02.776Z,100397.06
2022-12-25T17:39:30.383Z,100397.06
2022-12-25T17:41:59.241Z,100397.06
2022-12-25T17:44:27.269Z,100379.44
2022-12-25T17:46:54.821Z,100396.16
2022-12-25T17:49:23.026Z,100404.09
2022-12-25T17:51:50.610Z,100409.34
2022-12-25T17:54:18.128Z,100403.22
2022-12-25T17:56:45.749Z,100406.72
2022-12-25T17:59:18.495Z,100400.56
2022-12-25T18:01:48.134Z,100411.97
2022-12-25T18:04:15.982Z,100397.94
2022-12-25T18:06:43.534Z,100386.50
2022-12-25T18:09:12.104Z,100379.44
2022-12-25T18:11:41.262Z,100378.56
2022-12-25T18:14:10.768Z,100381.16
2022-12-25T18:16:42.003Z,100381.16
2022-12-25T18:19:09.800Z,100381.13
2022-12-25T18:21:37.814Z,100384.69
2022-12-25T18:24:06.948Z,100384.69
2022-12-25T18:26:35.263Z,100382.94
2022-12-25T18:29:03.223Z,100379.41
2022-12-25T18:31:31.096Z,100360.97
2022-12-25T18:34:01.174Z,100356.56
2022-12-25T18:36:29.669Z,100364.50
2022-12-25T18:38:58.413Z,100367.19
2022-12-25T18:41:27.990Z,100355.75
2022-12-25T18:43:56.151Z,100357.53
2022-12-25T18:46:25.279Z,100338.19
2022-12-25T18:48:53.568Z,100341.69
2022-12-25T18:51:22.551Z,100339.06
2022-12-25T18:53:50.087Z,100330.28
2022-12-25T18:56:18.948Z,100333.81
2022-12-25T18:58:47.356Z,100325.88
2022-12-25T19:01:17.163Z,100328.53
2022-12-25T19:03:46.081Z,100322.38
2022-12-25T19:06:17.924Z,100325.91
2022-12-25T19:08:47.199Z,100323.28
2022-12-25T19:11:14.911Z,100315.38
2022-12-25T19:13:44.171Z,100316.28
2022-12-25T19:16:12.532Z,100314.50
2022-12-25T19:18:40.744Z,100318.03
2022-12-25T19:21:09.632Z,100303.06
2022-12-25T19:23:38.368Z,100299.56
2022-12-25T19:26:08.422Z,100296.06
2022-12-25T19:28:36.479Z,100292.53
2022-12-25T19:31:07.274Z,100290.81
2022-12-25T19:33:35.983Z,100289.94
2022-12-25T19:36:04.833Z,100290.81
2022-12-25T19:38:32.393Z,100288.19
2022-12-25T19:41:03.049Z,100287.31
2022-12-25T19:43:35.268Z,100280.31
2022-12-25T19:46:03.540Z,100294.41
2022-12-25T19:48:32.574Z,100285.59
2022-12-25T19:51:00.373Z,100279.44
2022-12-25T19:53:29.812Z,100284.72
2022-12-25T19:56:02.199Z,100278.53
2022-12-25T19:58:29.937Z,100291.75
2022-12-25T20:00:59.662Z,100291.78
2022-12-25T20:03:27.613Z,100290.03
2022-12-25T20:05:55.301Z,100288.31
2022-12-25T20:08:23.077Z,100280.34
2022-12-25T20:10:50.890Z,100290.91
2022-12-25T20:13:18.837Z,100289.19
2022-12-25T20:15:46.874Z,100277.72
2022-12-25T20:18:16.758Z,100281.28
2022-12-25T20:20:45.040Z,100278.63
2022-12-25T20:23:14.818Z,100266.31
2022-12-25T20:25:42.789Z,100258.38
2022-12-25T20:28:11.536Z,100256.63
2022-12-25T20:30:40.399Z,100248.69
2022-12-25T20:33:08.016Z,100261.91
2022-12-25T20:35:36.989Z,100273.31
2022-12-25T20:38:04.700Z,100261.88
2022-12-25T20:40:46.792Z,100251.31
2022-12-25T20:43:19.736Z,100241.63
2022-12-25T20:45:52.533Z,100255.75
2022-12-25T20:48:20.164Z,100251.34
2022-12-25T20:50:49.174Z,100238.13
2022-12-25T20:53:17.106Z,100229.31
2022-12-25T20:55:46.616Z,100246.06
2022-12-25T20:58:14.781Z,100239.91
2022-12-25T21:00:43.347Z,100244.31
2022-12-25T21:03:11.275Z,100237.28
2022-12-25T21:05:49.793Z,100224.94
2022-12-25T21:08:19.261Z,100218.81
2022-12-25T21:10:50.407Z,100229.34
2022-12-25T21:13:18.531Z,100225.84
2022-12-25T21:15:46.675Z,100230.28
2022-12-25T21:18:14.646Z,100223.25
2022-12-25T21:20:45.205Z,100222.34
2022-12-25T21:23:12.806Z,100226.75
2022-12-25T21:25:43.498Z,100231.19
2022-12-25T21:28:13.348Z,100227.66
2022-12-25T21:30:40.981Z,100228.53
2022-12-25T21:33:26.347Z,100220.59
2022-12-25T21:35:54.103Z,100220.63
2022-12-25T21:38:21.693Z,100232.06
2022-12-25T21:40:50.609Z,100237.34
2022-12-25T21:43:18.217Z,100225.91
2022-12-25T21:45:45.934Z,100225.91
2022-12-25T21:48:14.201Z,100222.34
2022-12-25T21:50:59.758Z,100231.16
2022-12-25T21:53:27.505Z,100238.19
2022-12-25T21:56:02.431Z,100261.19
2022-12-25T21:58:30.501Z,100240.91
2022-12-25T22:01:02.871Z,100238.25
2022-12-25T22:03:30.552Z,100230.31
2022-12-25T22:06:21.411Z,100238.25
2022-12-25T22:08:49.718Z,100242.63
2022-12-25T22:11:36.279Z,100247.06
2022-12-25T22:14:51.875Z,100247.06
2022-12-25T22:17:29.552Z,100236.47
2022-12-25T22:19:57.372Z,100230.28
2022-12-25T22:22:26.409Z,100237.34
2022-12-25T22:24:56.054Z,100229.41
2022-12-25T22:27:25.869Z,100228.53
2022-12-25T22:29:53.537Z,100230.28
2022-12-25T22:32:21.300Z,100230.28
2022-12-25T22:34:48.865Z,100229.41
2022-12-25T22:37:18.227Z,100225.84
2022-12-25T22:39:46.026Z,100215.25
2022-12-25T22:42:14.444Z,100215.25
2022-12-25T22:44:43.567Z,100215.25
2022-12-25T22:47:11.097Z,100214.38
2022-12-25T22:49:39.290Z,100220.56
2022-12-25T22:52:08.062Z,100219.69
2022-12-25T22:54:35.690Z,100221.44
2022-12-25T22:57:03.266Z,100220.56
2022-12-25T22:59:30.936Z,100217.03
2022-12-25T23:02:00.143Z,100228.50
2022-12-25T23:04:28.198Z,100221.44
2022-12-25T23:06:55.787Z,100214.38
2022-12-25T23:09:27.715Z,100207.31
2022-12-25T23:11:56.584Z,100212.63
2022-12-25T23:14:41.638Z,100221.44
2022-12-25T23:17:27.448Z,100221.44
2022-12-25T23:20:18.816Z,100221.44
2022-12-25T23:23:04.519Z,100214.38
2022-12-25T23:25:49.866Z,100216.13
2022-12-25T23:28:37.424Z,100213.47
2022-12-25T23:31:04.218Z,100215.25
2022-12-25T23:33:33.290Z,100223.19
2022-12-25T23:36:00.873Z,100218.78
2022-12-25T23:38:28.446Z,100216.13
2022-12-25T23:40:55.945Z,100212.63
2022-12-25T23:43:23.659Z,100204.66
2022-12-25T23:45:51.202Z,100212.63
2022-12-25T23:48:18.698Z,100213.47
2022-12-25T23:50:47.724Z,100213.53
2022-12-25T23:53:15.305Z,100214.38
2022-12-25T23:55:43.518Z,100216.16
2022-12-25T23:58:11.450Z,100214.38
